createdAt,value
2019-05-01T00:01:57.236Z,64.10
2019-05-01T00:04:44.843Z,69.70
2019-05-01T00:07:30.434Z,86.30
2019-05-01T00:10:09.597Z,79.63
2019-05-01T00:12:46.734Z,78.07
2019-05-01T00:15:27.686Z,86.10
2019-05-01T00:18:03.170Z,75.07
2019-05-01T00:20:41.511Z,73.60
2019-05-01T00:23:16.991Z,77.00
2019-05-01T00:25:54.430Z,82.33
2019-05-01T00:28:33.560Z,63.60
2019-05-01T00:31:08.719Z,66.77
2019-05-01T00:33:43.688Z,77.63
2019-05-01T00:36:18.588Z,74.30
2019-05-01T00:38:54.431Z,74.33
2019-05-01T00:41:29.123Z,103.83
2019-05-01T00:44:02.571Z,85.17
2019-05-01T00:46:36.176Z,83.20
2019-05-01T00:49:10.703Z,98.43
2019-05-01T00:51:45.833Z,97.50
2019-05-01T00:54:20.206Z,116.50
2019-05-01T00:57:11.342Z,129.77
2019-05-01T01:00:02.261Z,134.83
2019-05-01T01:02:41.730Z,119.90
2019-05-01T01:05:15.694Z,119.67
2019-05-01T01:07:50.717Z,93.20
2019-05-01T01:10:26.185Z,102.33
2019-05-01T01:13:00.494Z,110.93
2019-05-01T01:15:35.463Z,92.63
2019-05-01T01:18:10.417Z,79.20
2019-05-01T01:20:47.215Z,79.37
2019-05-01T01:23:22.594Z,118.77
2019-05-01T01:25:58.123Z,88.43
2019-05-01T01:28:33.645Z,120.00
2019-05-01T01:31:09.440Z,124.73
2019-05-01T01:33:47.174Z,131.80
2019-05-01T01:36:22.317Z,110.97
2019-05-01T01:38:59.269Z,105.70
2019-05-01T01:41:35.171Z,103.87
2019-05-01T01:44:39.018Z,129.60
2019-05-01T01:47:14.388Z,107.80
2019-05-01T01:49:49.636Z,100.40
2019-05-01T01:52:24.458Z,83.30
2019-05-01T01:54:58.796Z,88.73
2019-05-01T01:57:33.257Z,81.43
2019-05-01T02:00:08.547Z,157.90
2019-05-01T02:02:53.214Z,124.43
2019-05-01T02:05:31.038Z,102.87
2019-05-01T02:08:05.536Z,156.67
2019-05-01T02:10:42.852Z,110.40
2019-05-01T02:13:15.492Z,136.23
2019-05-01T02:15:49.241Z,160.93
2019-05-01T02:18:23.495Z,125.87
2019-05-01T02:20:57.798Z,161.17
2019-05-01T02:23:31.486Z,137.27
2019-05-01T02:26:07.401Z,131.43
2019-05-01T02:28:53.396Z,166.40
2019-05-01T02:31:31.862Z,126.80
2019-05-01T02:34:07.328Z,128.70
2019-05-01T02:36:42.288Z,106.27
2019-05-01T02:39:19.965Z,104.63
2019-05-01T02:41:57.369Z,90.43
2019-05-01T02:44:37.565Z,86.27
2019-05-01T02:47:15.643Z,79.30
2019-05-01T02:49:55.020Z,79.03
2019-05-01T02:52:32.983Z,76.97
2019-05-01T02:55:15.576Z,74.57
2019-05-01T02:57:49.738Z,73.83
2019-05-01T03:00:23.961Z,79.37
2019-05-01T03:02:58.877Z,93.73
2019-05-01T03:05:33.703Z,86.33
2019-05-01T03:08:08.388Z,78.97
2019-05-01T03:10:42.651Z,82.27
2019-05-01T03:13:16.856Z,72.73
2019-05-01T03:15:51.169Z,87.63
2019-05-01T03:18:32.537Z,66.07
2019-05-01T03:21:15.065Z,76.00
2019-05-01T03:24:15.942Z,96.97
2019-05-01T03:26:51.508Z,88.60
2019-05-01T03:29:25.395Z,86.13
2019-05-01T03:32:17.286Z,81.70
2019-05-01T03:34:39.625Z,88.43
2019-05-01T03:37:14.907Z,85.17
2019-05-01T03:39:49.222Z,89.47
2019-05-01T03:42:25.563Z,107.83
2019-05-01T03:45:03.047Z,135.63
2019-05-01T03:47:39.913Z,102.07
2019-05-01T03:50:13.874Z,101.67
2019-05-01T03:52:47.279Z,92.20
2019-05-01T03:55:25.279Z,96.80
2019-05-01T03:57:59.116Z,93.43
2019-05-01T04:01:01.161Z,90.37
2019-05-01T04:03:39.854Z,90.27
2019-05-01T04:06:13.884Z,94.93
2019-05-01T04:08:48.094Z,115.03
2019-05-01T04:11:22.595Z,117.27
2019-05-01T04:14:02.377Z,126.40
2019-05-01T04:16:36.544Z,136.43
2019-05-01T04:19:10.621Z,151.93
2019-05-01T04:21:50.495Z,135.40
2019-05-01T04:24:24.283Z,147.57
2019-05-01T04:26:58.743Z,153.10
2019-05-01T04:29:38.929Z,153.13
2019-05-01T04:32:50.946Z,139.80
2019-05-01T04:35:19.689Z,160.20
2019-05-01T04:37:57.079Z,186.77
2019-05-01T04:40:31.425Z,214.60
2019-05-01T04:43:05.983Z,225.27
2019-05-01T04:45:40.456Z,224.27
2019-05-01T04:48:15.301Z,267.43
2019-05-01T04:50:49.098Z,220.10
2019-05-01T04:53:26.072Z,219.57
2019-05-01T04:56:00.561Z,274.00
2019-05-01T04:58:35.187Z,324.77
2019-05-01T05:01:09.291Z,245.27
2019-05-01T05:03:42.236Z,247.07
2019-05-01T05:06:16.142Z,247.17
2019-05-01T05:08:53.322Z,283.87
2019-05-01T05:11:30.265Z,225.93
2019-05-01T05:14:12.636Z,233.57
2019-05-01T05:17:00.545Z,233.43
2019-05-01T05:19:34.839Z,242.40
2019-05-01T05:22:09.282Z,203.03
2019-05-01T05:24:45.708Z,260.67
2019-05-01T05:27:19.574Z,336.07
2019-05-01T05:29:56.710Z,218.50
2019-05-01T05:32:30.824Z,231.40
2019-05-01T05:35:09.338Z,213.73
2019-05-01T05:38:06.997Z,229.90
2019-05-01T05:40:43.781Z,254.90
2019-05-01T05:43:20.138Z,229.77
2019-05-01T05:45:56.188Z,279.33
2019-05-01T05:48:32.762Z,263.77
2019-05-01T05:51:17.268Z,267.27
2019-05-01T05:53:57.937Z,251.10
2019-05-01T05:56:41.466Z,316.27
2019-05-01T05:59:21.400Z,265.40
2019-05-01T06:02:07.341Z,233.63
2019-05-01T06:05:09.522Z,245.70
2019-05-01T06:08:05.719Z,225.87
2019-05-01T06:11:03.437Z,252.33
2019-05-01T06:13:58.915Z,257.17
2019-05-01T06:17:01.464Z,226.60
2019-05-01T06:19:45.906Z,219.13
2019-05-01T06:22:35.780Z,202.37
2019-05-01T06:25:23.104Z,186.47
2019-05-01T06:28:15.087Z,178.90
2019-05-01T06:30:48.940Z,176.63
2019-05-01T06:33:24.141Z,203.27
2019-05-01T06:35:57.142Z,199.47
2019-05-01T06:38:31.587Z,198.87
2019-05-01T06:41:07.531Z,202.67
2019-05-01T06:44:02.260Z,193.80
2019-05-01T06:46:43.930Z,191.00
2019-05-01T06:49:41.320Z,217.33
2019-05-01T06:52:20.586Z,197.77
2019-05-01T06:54:55.148Z,178.93
2019-05-01T06:57:29.529Z,184.33
2019-05-01T07:00:08.116Z,198.03
2019-05-01T07:02:39.979Z,175.17
2019-05-01T07:05:15.091Z,180.57
2019-05-01T07:07:48.008Z,189.90
2019-05-01T07:10:30.571Z,166.43
2019-05-01T07:12:59.867Z,176.23
2019-05-01T07:15:31.196Z,175.80
2019-05-01T07:18:06.440Z,184.10
2019-05-01T07:20:53.550Z,179.00
2019-05-01T07:23:35.259Z,173.07
2019-05-01T07:26:13.638Z,169.63
2019-05-01T07:28:48.213Z,172.03
2019-05-01T07:31:31.006Z,175.13
2019-05-01T07:34:15.845Z,170.80
2019-05-01T07:36:38.391Z,172.93
2019-05-01T07:39:17.291Z,161.20
2019-05-01T07:41:52.516Z,164.67
2019-05-01T07:44:34.923Z,181.70
2019-05-01T07:47:31.692Z,141.27
2019-05-01T07:50:07.009Z,154.90
2019-05-01T07:52:47.679Z,162.90
2019-05-01T07:55:36.350Z,153.63
2019-05-01T07:58:15.995Z,157.17
2019-05-01T08:00:58.591Z,160.87
2019-05-01T08:03:37.996Z,162.10
2019-05-01T08:06:21.677Z,171.07
2019-05-01T08:08:54.809Z,158.47
2019-05-01T08:11:43.598Z,162.53
2019-05-01T08:14:16.471Z,166.73
2019-05-01T08:16:52.989Z,166.17
2019-05-01T08:19:39.267Z,151.57
2019-05-01T08:22:16.739Z,146.27
2019-05-01T08:24:53.846Z,150.27
2019-05-01T08:27:39.814Z,158.13
2019-05-01T08:30:36.020Z,151.90
2019-05-01T08:33:31.021Z,144.83
2019-05-01T08:36:11.598Z,151.37
2019-05-01T08:38:53.890Z,159.63
2019-05-01T08:41:33.477Z,157.23
2019-05-01T08:44:12.696Z,152.90
2019-05-01T08:46:58.777Z,149.37
2019-05-01T08:49:54.587Z,156.70
2019-05-01T08:52:29.994Z,152.07
2019-05-01T08:55:04.328Z,162.47
2019-05-01T08:57:39.601Z,154.97
2019-05-01T09:00:17.788Z,154.13
2019-05-01T09:02:52.549Z,159.43
2019-05-01T09:05:32.278Z,153.03
2019-05-01T09:08:04.759Z,162.63
2019-05-01T09:10:39.314Z,151.43
2019-05-01T09:13:14.548Z,157.17
2019-05-01T09:15:50.211Z,144.67
2019-05-01T09:18:25.195Z,143.80
2019-05-01T09:21:00.878Z,161.53
2019-05-01T09:23:35.836Z,142.07
2019-05-01T09:26:21.344Z,155.77
2019-05-01T09:29:00.268Z,148.47
2019-05-01T09:31:36.140Z,145.27
2019-05-01T09:34:14.012Z,142.67
2019-05-01T09:36:48.245Z,148.07
2019-05-01T09:39:24.445Z,140.70
2019-05-01T09:41:58.033Z,147.37
2019-05-01T09:44:31.747Z,145.83
2019-05-01T09:47:06.061Z,138.10
2019-05-01T09:49:40.093Z,145.37
2019-05-01T09:52:44.006Z,134.10
2019-05-01T09:55:26.074Z,141.10
2019-05-01T09:58:02.585Z,148.73
2019-05-01T10:00:34.883Z,137.50
2019-05-01T10:03:13.106Z,136.07
2019-05-01T10:05:45.085Z,137.10
2019-05-01T10:08:20.546Z,137.57
2019-05-01T10:10:55.332Z,135.27
2019-05-01T10:13:29.677Z,141.67
2019-05-01T10:16:03.365Z,137.43
2019-05-01T10:18:38.920Z,143.07
2019-05-01T10:21:13.517Z,131.80
2019-05-01T10:23:53.127Z,138.90
2019-05-01T10:26:29.251Z,138.37
2019-05-01T10:29:28.319Z,129.47
2019-05-01T10:32:08.718Z,129.47
2019-05-01T10:35:19.304Z,134.43
2019-05-01T10:37:54.510Z,139.97
2019-05-01T10:40:32.221Z,139.27
2019-05-01T10:43:03.977Z,140.90
2019-05-01T10:45:38.513Z,133.63
2019-05-01T10:48:12.420Z,133.50
2019-05-01T10:50:45.696Z,140.73
2019-05-01T10:53:19.603Z,141.60
2019-05-01T10:55:54.652Z,143.83
2019-05-01T10:58:29.366Z,145.47
2019-05-01T11:01:14.466Z,135.80
2019-05-01T11:03:48.073Z,139.93
2019-05-01T11:06:21.981Z,143.10
2019-05-01T11:08:55.613Z,147.33
2019-05-01T11:11:30.829Z,142.10
2019-05-01T11:14:06.578Z,142.57
2019-05-01T11:16:41.546Z,151.17
2019-05-01T11:19:15.491Z,148.07
2019-05-01T11:21:49.004Z,152.80
2019-05-01T11:24:28.056Z,150.57
2019-05-01T11:27:01.210Z,142.03
2019-05-01T11:29:36.467Z,139.77
2019-05-01T11:32:30.593Z,141.37
2019-05-01T11:35:23.920Z,135.87
2019-05-01T11:38:20.657Z,141.00
2019-05-01T11:41:00.720Z,151.13
2019-05-01T11:43:35.400Z,136.53
2019-05-01T11:46:09.156Z,133.60
2019-05-01T11:48:44.690Z,139.60
2019-05-01T11:51:19.135Z,142.13
2019-05-01T11:53:56.318Z,143.70
2019-05-01T11:56:31.705Z,142.20
2019-05-01T11:59:09.616Z,147.00
2019-05-01T12:01:47.714Z,157.47
2019-05-01T12:04:23.646Z,157.73
2019-05-01T12:06:57.630Z,155.20
2019-05-01T12:09:32.769Z,157.93
2019-05-01T12:12:13.519Z,148.63
2019-05-01T12:14:49.176Z,154.83
2019-05-01T12:17:34.703Z,150.27
2019-05-01T12:20:09.593Z,161.73
2019-05-01T12:22:47.466Z,151.93
2019-05-01T12:25:21.339Z,146.80
2019-05-01T12:27:55.383Z,139.50
2019-05-01T12:30:29.750Z,144.73
2019-05-01T12:33:03.394Z,127.43
2019-05-01T12:35:37.449Z,104.57
2019-05-01T12:38:10.456Z,108.10
2019-05-01T12:41:06.603Z,107.50
2019-05-01T12:43:47.833Z,108.73
2019-05-01T12:46:55.438Z,99.87
2019-05-01T12:49:29.140Z,106.30
2019-05-01T12:52:10.174Z,101.90
2019-05-01T12:54:57.404Z,106.77
2019-05-01T12:57:44.253Z,106.20
2019-05-01T13:01:12.374Z,111.00
2019-05-01T13:03:47.862Z,109.60
2019-05-01T13:06:19.611Z,94.67
2019-05-01T13:08:52.161Z,97.13
2019-05-01T13:11:24.659Z,99.50
2019-05-01T13:13:56.972Z,104.30
2019-05-01T13:16:29.345Z,106.57
2019-05-01T13:19:00.936Z,105.97
2019-05-01T13:21:33.345Z,102.47
2019-05-01T13:24:05.254Z,99.63
2019-05-01T13:27:03.713Z,99.60
2019-05-01T13:29:41.350Z,102.67
2019-05-01T13:32:21.596Z,109.20
2019-05-01T13:34:54.148Z,101.67
2019-05-01T13:37:26.414Z,95.93
2019-05-01T13:39:59.022Z,60.47
2019-05-01T13:42:31.981Z,58.20
2019-05-01T13:45:05.356Z,74.17
2019-05-01T13:47:39.521Z,70.77
2019-05-01T13:50:12.030Z,94.87
2019-05-01T13:52:44.689Z,95.07
2019-05-01T13:55:17.407Z,80.33
2019-05-01T13:57:50.600Z,92.73
2019-05-01T14:00:23.420Z,87.83
2019-05-01T14:02:58.866Z,86.47
2019-05-01T14:05:32.683Z,94.17
2019-05-01T14:08:06.077Z,95.93
2019-05-01T14:10:39.211Z,90.83
2019-05-01T14:13:12.245Z,85.67
2019-05-01T14:15:46.792Z,72.57
2019-05-01T14:18:19.657Z,63.00
2019-05-01T14:21:14.428Z,57.30
2019-05-01T14:24:06.747Z,52.80
2019-05-01T14:26:40.425Z,48.83
2019-05-01T14:29:13.439Z,55.63
2019-05-01T14:31:47.127Z,54.40
2019-05-01T14:34:20.642Z,63.37
2019-05-01T14:36:52.515Z,54.43
2019-05-01T14:39:24.626Z,64.17
2019-05-01T14:41:55.946Z,55.45
2019-05-01T14:44:36.579Z,52.10
2019-05-01T14:47:02.174Z,52.33
2019-05-01T14:49:33.272Z,56.08
2019-05-01T14:52:05.280Z,53.73
2019-05-01T14:54:36.812Z,50.52
2019-05-01T14:57:09.798Z,52.00
2019-05-01T14:59:40.895Z,47.58
2019-05-01T15:02:12.165Z,46.15
2019-05-01T15:04:44.014Z,47.30
2019-05-01T15:07:15.413Z,45.75
2019-05-01T15:09:47.446Z,45.12
2019-05-01T15:12:19.122Z,43.58
2019-05-01T15:15:07.527Z,44.08
2019-05-01T15:18:05.520Z,44.90
2019-05-01T15:20:38.986Z,48.50
2019-05-01T15:23:11.195Z,43.55
2019-05-01T15:25:45.195Z,45.50
2019-05-01T15:28:17.736Z,43.40
2019-05-01T15:30:50.352Z,42.30
2019-05-01T15:33:22.876Z,45.70
2019-05-01T15:35:55.017Z,49.67
2019-05-01T15:38:27.027Z,42.13
2019-05-01T15:41:19.093Z,43.02
2019-05-01T15:44:12.349Z,42.70
2019-05-01T15:46:46.118Z,45.98
2019-05-01T15:49:18.700Z,41.75
2019-05-01T15:51:52.492Z,43.02
2019-05-01T15:54:26.217Z,42.33
2019-05-01T15:57:03.893Z,44.95
2019-05-01T15:59:38.049Z,44.88
2019-05-01T16:02:11.759Z,45.05
2019-05-01T16:04:46.377Z,44.67
2019-05-01T16:07:27.040Z,46.05
2019-05-01T16:10:01.784Z,45.40
2019-05-01T16:12:59.690Z,49.00
2019-05-01T16:15:36.003Z,48.65
2019-05-01T16:18:11.605Z,43.78
2019-05-01T16:20:46.188Z,45.43
2019-05-01T16:23:20.590Z,49.30
2019-05-01T16:25:55.694Z,47.50
2019-05-01T16:28:32.256Z,50.53
2019-05-01T16:31:07.297Z,47.43
2019-05-01T16:33:44.151Z,48.47
2019-05-01T16:36:20.389Z,52.43
2019-05-01T16:39:12.091Z,52.87
2019-05-01T16:41:45.808Z,48.97
2019-05-01T16:44:21.415Z,50.97
2019-05-01T16:47:06.474Z,52.73
2019-05-01T16:49:48.136Z,48.47
2019-05-01T16:52:25.972Z,50.93
2019-05-01T16:55:01.436Z,47.63
2019-05-01T16:57:42.439Z,55.30
2019-05-01T17:00:22.824Z,51.40
2019-05-01T17:03:15.306Z,52.90
2019-05-01T17:06:05.183Z,50.60
2019-05-01T17:09:43.645Z,52.93
2019-05-01T17:12:23.559Z,51.87
2019-05-01T17:15:05.322Z,51.57
2019-05-01T17:17:55.042Z,51.13
2019-05-01T17:20:39.236Z,51.03
2019-05-01T17:23:15.662Z,51.83
2019-05-01T17:25:51.774Z,53.50
2019-05-01T17:28:32.845Z,57.47
2019-05-01T17:31:24.122Z,58.10
2019-05-01T17:33:59.298Z,57.37
2019-05-01T17:36:34.985Z,56.67
2019-05-01T17:39:16.874Z,57.27
2019-05-01T17:42:02.045Z,57.93
2019-05-01T17:44:35.130Z,62.60
2019-05-01T17:47:09.538Z,56.70
2019-05-01T17:49:44.845Z,59.93
2019-05-01T17:52:22.369Z,57.43
2019-05-01T17:54:56.676Z,57.93
2019-05-01T17:57:33.526Z,57.73
2019-05-01T18:00:21.090Z,63.10
2019-05-01T18:03:02.556Z,61.13
2019-05-01T18:05:56.159Z,61.53
2019-05-01T18:08:30.463Z,56.10
2019-05-01T18:11:04.655Z,65.17
2019-05-01T18:13:38.491Z,58.43
2019-05-01T18:16:12.341Z,59.57
2019-05-01T18:18:45.773Z,58.17
2019-05-01T18:21:19.349Z,60.23
2019-05-01T18:24:18.858Z,60.67
2019-05-01T18:27:21.230Z,57.07
2019-05-01T18:29:58.445Z,62.20
2019-05-01T18:32:41.825Z,60.10
2019-05-01T18:35:16.841Z,60.57
2019-05-01T18:37:59.095Z,57.20
2019-05-01T18:40:39.800Z,60.13
2019-05-01T18:43:15.326Z,60.77
2019-05-01T18:45:54.263Z,58.13
2019-05-01T18:48:29.126Z,61.13
2019-05-01T18:51:05.496Z,66.77
2019-05-01T18:53:46.112Z,65.33
2019-05-01T18:56:23.007Z,65.33
2019-05-01T18:58:56.709Z,64.20
2019-05-01T19:01:33.332Z,63.07
2019-05-01T19:04:11.627Z,64.77
2019-05-01T19:06:46.346Z,60.83
2019-05-01T19:09:29.863Z,58.73
2019-05-01T19:11:57.465Z,64.60
2019-05-01T19:14:31.711Z,62.70
2019-05-01T19:17:06.727Z,69.83
2019-05-01T19:19:40.721Z,70.17
2019-05-01T19:22:14.826Z,70.23
2019-05-01T19:24:48.337Z,68.33
2019-05-01T19:27:24.224Z,69.37
2019-05-01T19:29:59.525Z,70.10
2019-05-01T19:32:35.387Z,71.83
2019-05-01T19:35:11.028Z,76.37
2019-05-01T19:37:45.163Z,82.97
2019-05-01T19:40:18.739Z,76.00
2019-05-01T19:42:57.564Z,80.53
2019-05-01T19:45:32.463Z,80.80
2019-05-01T19:48:06.920Z,78.20
2019-05-01T19:50:47.946Z,79.03
2019-05-01T19:53:17.488Z,77.83
2019-05-01T19:55:53.239Z,76.43
2019-05-01T19:58:29.630Z,81.00
2019-05-01T20:01:05.209Z,80.27
2019-05-01T20:03:40.123Z,84.57
2019-05-01T20:06:14.349Z,85.63
2019-05-01T20:08:49.204Z,82.67
2019-05-01T20:11:24.347Z,84.63
2019-05-01T20:13:57.983Z,84.63
2019-05-01T20:16:32.328Z,89.17
2019-05-01T20:19:06.708Z,91.17
2019-05-01T20:21:41.822Z,103.20
2019-05-01T20:24:19.332Z,89.27
2019-05-01T20:27:03.786Z,99.07
2019-05-01T20:29:41.197Z,99.23
2019-05-01T20:32:21.013Z,86.53
2019-05-01T20:35:30.219Z,97.20
2019-05-01T20:38:13.038Z,101.53
2019-05-01T20:40:50.925Z,108.33
2019-05-01T20:43:38.236Z,111.40
2019-05-01T20:46:21.264Z,105.63
2019-05-01T20:49:07.343Z,98.63
2019-05-01T20:51:45.405Z,103.50
2019-05-01T20:54:22.987Z,117.47
2019-05-01T20:57:13.595Z,116.83
2019-05-01T20:59:52.951Z,129.80
2019-05-01T21:03:00.390Z,116.57
2019-05-01T21:05:38.141Z,115.80
2019-05-01T21:08:19.120Z,118.70
2019-05-01T21:11:16.189Z,106.20
2019-05-01T21:13:50.056Z,111.57
2019-05-01T21:16:25.032Z,108.40
2019-05-01T21:19:01.737Z,109.73
2019-05-01T21:21:36.118Z,106.30
2019-05-01T21:24:17.940Z,104.20
2019-05-01T21:26:55.443Z,110.80
2019-05-01T21:29:31.188Z,102.93
2019-05-01T21:32:18.256Z,103.07
2019-05-01T21:34:53.723Z,105.20
2019-05-01T21:37:33.050Z,107.57
2019-05-01T21:40:12.908Z,107.93
2019-05-01T21:42:56.783Z,105.97
2019-05-01T21:45:33.083Z,100.33
2019-05-01T21:48:08.458Z,96.30
2019-05-01T21:50:43.866Z,105.27
2019-05-01T21:53:20.451Z,88.93
2019-05-01T21:56:02.270Z,85.27
2019-05-01T21:58:41.815Z,87.70
2019-05-01T22:01:23.206Z,89.67
2019-05-01T22:03:59.291Z,87.40
2019-05-01T22:06:38.204Z,84.30
2019-05-01T22:09:23.991Z,90.27
2019-05-01T22:12:03.584Z,99.50
2019-05-01T22:15:15.325Z,102.23
2019-05-01T22:18:04.131Z,109.87
2019-05-01T22:20:47.997Z,106.43
2019-05-01T22:23:29.911Z,101.47
2019-05-01T22:26:12.451Z,109.07
2019-05-01T22:28:54.814Z,111.73
2019-05-01T22:31:52.916Z,99.37
2019-05-01T22:34:48.219Z,111.13
2019-05-01T22:37:22.533Z,90.83
2019-05-01T22:40:03.646Z,107.03
2019-05-01T22:42:37.992Z,104.70
2019-05-01T22:45:21.263Z,109.67
2019-05-01T22:47:56.510Z,107.00
2019-05-01T22:50:30.763Z,130.63
2019-05-01T22:53:12.937Z,117.07
2019-05-01T22:55:46.690Z,130.57
2019-05-01T22:58:23.129Z,131.90
2019-05-01T23:00:58.850Z,142.33
2019-05-01T23:03:44.499Z,123.30
2019-05-01T23:06:19.332Z,133.23
2019-05-01T23:08:53.907Z,136.23
2019-05-01T23:11:30.878Z,129.37
2019-05-01T23:14:05.564Z,132.00
2019-05-01T23:16:46.723Z,138.30
2019-05-01T23:19:22.792Z,120.30
2019-05-01T23:21:58.270Z,139.47
2019-05-01T23:24:33.655Z,137.27
2019-05-01T23:27:07.713Z,133.40
2019-05-01T23:29:42.250Z,125.57
2019-05-01T23:32:16.792Z,116.43
2019-05-01T23:34:51.671Z,139.50
2019-05-01T23:37:26.489Z,120.60
2019-05-01T23:40:02.826Z,115.70
2019-05-01T23:42:37.876Z,122.07
2019-05-01T23:45:13.057Z,113.37
2019-05-01T23:47:48.850Z,113.30
2019-05-01T23:50:28.276Z,120.87
2019-05-01T23:53:09.162Z,109.57
2019-05-01T23:55:41.500Z,137.33
2019-05-01T23:58:21.880Z,126.67
